Time;durP1;ratioP1;P1;durP2;ratioP2;P2;SDS_P1;SDS_P2;PMS_P1;PMS_P2;Temp;Humidity;BMP_temperature;BMP_pressure;BME280_temperature;BME280_humidity;BME280_pressure;Samples;Min_cycle;Max_cycle;Signal;HPM_P1;HPM_P2
2023/03/26 00:01:37;;;;;;;;;;;;;;;19.54;78.13;100533.00;4984485;28;19914;-53
2023/03/26 00:04:04;;;;;;;;;;;;;;;18.72;84.06;100533.22;4989048;28;19933;-55
2023/03/26 00:06:33;;;;;;;;;;;;;;;19.51;81.71;100536.25;4984861;28;19921;-53
2023/03/26 00:08:59;;;;;;;;;;;;;;;20.01;78.17;100538.66;4981781;28;19920;-55
2023/03/26 00:11:26;;;;;;;;;;;;;;;20.18;76.57;100536.53;4986637;28;19918;-50
2023/03/26 00:13:55;;;;;;;;;;;;;;;20.44;75.84;100533.09;4984287;28;19914;-53
2023/03/26 00:16:21;;;;;;;;;;;;;;;20.02;77.33;100537.56;4983166;28;19914;-55
2023/03/26 00:18:47;;;;;;;;;;;;;;;19.32;81.46;100523.13;4998263;28;19922;-52
2023/03/26 00:21:15;;;;;;;;;;;;;;;19.23;84.68;100529.28;4984930;28;19918;-55
2023/03/26 00:23:41;;;;;;;;;;;;;;;19.75;81.18;100525.78;4982302;28;19932;-51
2023/03/26 00:26:10;;;;;;;;;;;;;;;19.44;81.38;100522.13;4981329;28;19936;-54
2023/03/26 00:28:36;;;;;;;;;;;;;;;20.31;77.37;100523.56;4989154;28;20112;-48
2023/03/26 00:31:04;;;;;;;;;;;;;;;19.66;80.21;100510.28;4969254;28;19914;-53
2023/03/26 00:33:30;;;;;;;;;;;;;;;19.45;82.53;100510.19;4981832;28;19936;-52
2023/03/26 00:35:57;;;;;;;;;;;;;;;19.86;80.15;100504.94;4982178;28;19948;-53
2023/03/26 00:38:23;;;;;;;;;;;;;;;19.95;78.80;100507.97;4973728;28;19995;-56
2023/03/26 00:40:50;;;;;;;;;;;;;;;19.95;79.74;100496.31;4969253;28;19946;-52
2023/03/26 00:43:19;;;;;;;;;;;;;;;20.11;78.53;100495.28;4965898;28;19978;-52
2023/03/26 00:45:46;;;;;;;;;;;;;;;19.78;79.59;100494.59;4966708;28;19925;-53
2023/03/26 00:48:11;;;;;;;;;;;;;;;19.81;80.22;100498.69;4962686;28;19915;-51
2023/03/26 00:50:37;;;;;;;;;;;;;;;20.43;78.05;100482.56;4961639;28;19922;-53
2023/03/26 00:53:02;;;;;;;;;;;;;;;21.79;70.80;100498.38;4963529;28;20009;-55
2023/03/26 00:55:28;;;;;;;;;;;;;;;20.88;73.28;100491.84;4969970;28;19987;-53
2023/03/26 00:57:54;;;;;;;;;;;;;;;20.09;76.48;100488.47;4963310;28;19918;-56
2023/03/26 01:00:26;;;;;;;;;;;;;;;20.65;75.12;100492.34;4970409;28;19922;-56
2023/03/26 01:02:54;;;;;;;;;;;;;;;20.31;75.41;100477.41;4969066;28;19969;-53
2023/03/26 01:05:41;;;;;;;;;;;;;;;20.64;74.43;100486.09;4981914;28;19929;-53
2023/03/26 01:08:43;;;;;;;;;;;;;;;20.06;75.21;100482.50;4970441;28;19929;-56
2023/03/26 01:11:16;;;;;;;;;;;;;;;19.60;79.57;100461.44;4916524;29;19923;-53
2023/03/26 01:13:49;;;;;;;;;;;;;;;20.02;78.17;100458.88;4957361;28;19914;-53
2023/03/26 01:16:21;;;;;;;;;;;;;;;20.15;77.53;100457.53;4968795;28;19936;-53
2023/03/26 01:18:47;;;;;;;;;;;;;;;20.76;73.41;100462.19;4972946;28;20345;-55
2023/03/26 01:21:21;;;;;;;;;;;;;;;20.24;75.52;100460.53;4971159;28;19926;-53
2023/03/26 01:23:58;;;;;;;;;;;;;;;22.30;68.08;100458.31;4973267;28;19971;-57
2023/03/26 01:26:39;;;;;;;;;;;;;;;22.69;64.00;100454.78;4970586;28;19929;-53
2023/03/26 01:29:07;;;;;;;;;;;;;;;21.60;67.97;100449.22;4977867;28;19914;-51
2023/03/26 01:31:41;;;;;;;;;;;;;;;21.82;66.97;100448.03;4974651;28;20006;-54
2023/03/26 01:34:29;;;;;;;;;;;;;;;21.29;68.17;100450.13;4974045;28;19940;-54
2023/03/26 01:37:01;;;;;;;;;;;;;;;20.53;71.45;100446.41;4968285;28;19914;-55
2023/03/26 01:39:52;;;;;;;;;;;;;;;20.08;73.03;100446.97;4970423;28;19926;-55
2023/03/26 01:42:26;;;;;;;;;;;;;;;19.63;75.73;100441.94;4974165;28;19940;-53
2023/03/26 01:45:02;;;;;;;;;;;;;;;20.03;74.79;100428.75;4968448;28;19941;-52
2023/03/26 01:47:27;;;;;;;;;;;;;;;19.79;74.90;100431.09;4972320;28;19977;-51
2023/03/26 01:49:53;;;;;;;;;;;;;;;20.40;72.88;100426.06;4971604;28;19922;-57
2023/03/26 01:52:21;;;;;;;;;;;;;;;19.88;73.75;100420.56;4974040;28;19918;-53
2023/03/26 01:54:47;;;;;;;;;;;;;;;20.44;72.28;100411.66;4967825;28;19946;-55
2023/03/26 01:57:16;;;;;;;;;;;;;;;20.47;72.24;100413.84;4970357;28;19926;-54
2023/03/26 01:59:53;;;;;;;;;;;;;;;19.57;75.74;100405.00;4973325;28;19969;-55
2023/03/26 02:02:28;;;;;;;;;;;;;;;19.99;76.11;100405.97;4972412;28;19914;-52
2023/03/26 02:05:08;;;;;;;;;;;;;;;19.75;76.21;100394.75;4976902;28;19936;-53
2023/03/26 02:07:36;;;;;;;;;;;;;;;19.96;74.04;100395.66;4968266;28;19921;-52
2023/03/26 02:10:19;;;;;;;;;;;;;;;20.15;73.98;100400.53;4970839;28;19926;-52
2023/03/26 02:12:45;;;;;;;;;;;;;;;20.01;74.44;100402.97;4969668;28;19915;-54
2023/03/26 02:15:10;;;;;;;;;;;;;;;20.07;73.68;100385.63;4971692;28;19922;-52
2023/03/26 02:17:39;;;;;;;;;;;;;;;19.52;76.48;100383.31;4970122;28;20013;-51
2023/03/26 02:20:14;;;;;;;;;;;;;;;19.47;78.24;100383.28;4969158;28;19923;-55
2023/03/26 02:22:40;;;;;;;;;;;;;;;20.16;74.44;100381.28;4968178;28;19915;-55
2023/03/26 02:25:08;;;;;;;;;;;;;;;19.58;76.91;100374.09;4967650;28;19941;-54
2023/03/26 02:27:34;;;;;;;;;;;;;;;19.91;74.52;100372.03;4964839;28;19919;-57
2023/03/26 02:30:01;;;;;;;;;;;;;;;19.97;74.28;100369.31;4971957;28;19964;-55
2023/03/26 02:32:26;;;;;;;;;;;;;;;20.24;71.95;100369.06;4968593;28;19914;-56
2023/03/26 02:34:52;;;;;;;;;;;;;;;20.15;72.35;100366.06;4965714;28;19915;-55
2023/03/26 02:37:17;;;;;;;;;;;;;;;20.74;69.90;100369.25;4967173;28;19919;-52
2023/03/26 02:39:47;;;;;;;;;;;;;;;20.55;70.57;100365.50;4981225;28;19977;-56
2023/03/26 02:42:22;;;;;;;;;;;;;;;20.32;71.63;100354.13;4983634;28;19937;-54
2023/03/26 02:44:49;;;;;;;;;;;;;;;20.52;70.90;100364.13;4982884;28;19977;-52
2023/03/26 02:47:17;;;;;;;;;;;;;;;20.52;70.68;100360.59;4986295;28;19921;-55
2023/03/26 02:49:51;;;;;;;;;;;;;;;20.57;70.70;100360.59;4989184;28;19929;-55
2023/03/26 02:52:37;;;;;;;;;;;;;;;19.74;73.71;100357.84;4992180;28;19922;-53
2023/03/26 02:55:02;;;;;;;;;;;;;;;19.77;72.93;100351.88;4998626;28;19911;-54
2023/03/26 02:57:28;;;;;;;;;;;;;;;19.90;73.60;100350.53;4989739;28;19910;-56
2023/03/26 02:59:53;;;;;;;;;;;;;;;20.45;71.84;100344.59;4988635;28;19922;-55
2023/03/26 03:02:37;;;;;;;;;;;;;;;20.55;70.37;100346.50;4986720;28;19918;-56
2023/03/26 03:05:25;;;;;;;;;;;;;;;20.61;70.47;100342.66;4984589;28;19917;-52
2023/03/26 03:08:04;;;;;;;;;;;;;;;22.05;66.23;100345.78;4974213;28;19921;-53
2023/03/26 03:10:32;;;;;;;;;;;;;;;21.48;65.98;100346.16;4983656;28;19953;-54
2023/03/26 03:13:18;;;;;;;;;;;;;;;20.98;67.48;100340.69;4972614;28;19914;-54
2023/03/26 03:15:43;;;;;;;;;;;;;;;20.76;67.98;100339.91;4992311;28;20663;-54
2023/03/26 03:18:09;;;;;;;;;;;;;;;19.88;71.96;100334.56;4990509;28;19915;-55
2023/03/26 03:20:34;;;;;;;;;;;;;;;19.96;71.97;100337.84;4972239;28;19922;-52
2023/03/26 03:23:00;;;;;;;;;;;;;;;19.79;73.42;100333.44;5003482;28;19914;-52
2023/03/26 03:25:26;;;;;;;;;;;;;;;19.61;73.65;100324.75;4983905;28;19981;-55
2023/03/26 03:27:52;;;;;;;;;;;;;;;19.99;72.62;100318.28;4986088;28;19921;-50
2023/03/26 03:30:18;;;;;;;;;;;;;;;20.13;71.30;100313.97;4984933;28;19918;-53
2023/03/26 03:32:44;;;;;;;;;;;;;;;19.94;72.04;100310.94;4984592;28;19924;-55
2023/03/26 03:35:10;;;;;;;;;;;;;;;22.02;63.90;100317.22;4970659;28;19966;-55
2023/03/26 03:37:38;;;;;;;;;;;;;;;20.10;68.50;100306.34;4974698;28;19981;-55
2023/03/26 03:40:06;;;;;;;;;;;;;;;19.96;70.39;100310.69;4961259;28;19922;-55
2023/03/26 03:42:33;;;;;;;;;;;;;;;20.01;70.56;100302.53;4970135;28;19953;-55
2023/03/26 03:45:04;;;;;;;;;;;;;;;19.29;72.62;100301.34;4969195;28;19961;-55
2023/03/26 03:47:55;;;;;;;;;;;;;;;21.18;66.80;100304.44;4967508;28;19915;-55
2023/03/26 03:50:30;;;;;;;;;;;;;;;20.13;69.02;100297.66;4965947;28;20344;-55
2023/03/26 03:53:15;;;;;;;;;;;;;;;20.40;68.32;100293.00;4969172;28;19924;-56
2023/03/26 03:55:42;;;;;;;;;;;;;;;20.69;67.82;100287.75;4968886;28;19949;-53
2023/03/26 03:58:08;;;;;;;;;;;;;;;20.69;67.09;100293.19;4971868;28;19922;-56
2023/03/26 04:00:37;;;;;;;;;;;;;;;20.14;68.77;100288.44;4973374;28;19926;-54
2023/03/26 04:03:22;;;;;;;;;;;;;;;20.36;67.93;100279.16;4971989;28;19919;-54
2023/03/26 04:05:53;;;;;;;;;;;;;;;19.95;69.24;100276.50;4972519;28;19921;-52
2023/03/26 04:08:23;;;;;;;;;;;;;;;20.20;69.13;100281.09;4970370;28;19914;-53
2023/03/26 04:10:54;;;;;;;;;;;;;;;20.49;67.55;100273.16;4963938;28;19915;-55
2023/03/26 04:13:40;;;;;;;;;;;;;;;20.66;67.30;100274.72;4971920;28;19922;-54
2023/03/26 04:16:36;;;;;;;;;;;;;;;20.34;67.39;100267.78;4968475;28;19937;-53
2023/03/26 04:19:02;;;;;;;;;;;;;;;20.11;68.05;100261.00;4968158;28;19918;-53
2023/03/26 04:21:32;;;;;;;;;;;;;;;20.67;67.38;100262.78;4966517;28;19914;-54
2023/03/26 04:24:00;;;;;;;;;;;;;;;20.45;66.72;100258.50;4964462;28;19981;-53
2023/03/26 04:26:46;;;;;;;;;;;;;;;20.97;65.54;100261.03;4968083;28;19984;-56
2023/03/26 04:29:15;;;;;;;;;;;;;;;20.69;65.10;100252.44;4965307;28;19914;-56
2023/03/26 04:31:42;;;;;;;;;;;;;;;20.60;65.81;100249.47;4964568;28;19982;-52
2023/03/26 04:34:13;;;;;;;;;;;;;;;20.06;67.11;100246.38;4970432;28;19926;-54
2023/03/26 04:36:53;;;;;;;;;;;;;;;19.73;68.68;100231.44;4969429;28;19914;-52
2023/03/26 04:39:21;;;;;;;;;;;;;;;19.48;69.62;100222.22;4971065;28;19989;-53
2023/03/26 04:42:18;;;;;;;;;;;;;;;20.30;67.08;100226.78;4970597;28;19965;-54
2023/03/26 04:45:08;;;;;;;;;;;;;;;20.08;67.36;100221.69;4968528;28;19985;-57
2023/03/26 04:47:37;;;;;;;;;;;;;;;19.90;68.38;100213.00;4969981;28;19925;-50
2023/03/26 04:50:06;;;;;;;;;;;;;;;20.44;65.92;100216.13;4969704;28;20158;-55
2023/03/26 04:52:32;;;;;;;;;;;;;;;21.07;64.80;100213.97;4971737;28;19982;-53
2023/03/26 04:55:30;;;;;;;;;;;;;;;20.63;65.41;100212.81;4968882;28;19921;-57
2023/03/26 04:58:04;;;;;;;;;;;;;;;20.57;65.67;100197.63;4972151;28;19933;-52
2023/03/26 05:00:48;;;;;;;;;;;;;;;20.66;65.38;100197.88;4968643;28;19919;-53
2023/03/26 05:03:14;;;;;;;;;;;;;;;20.79;65.00;100194.53;4971171;28;19961;-53
2023/03/26 05:05:40;;;;;;;;;;;;;;;20.88;64.59;100197.50;4967013;28;19937;-52
2023/03/26 05:08:07;;;;;;;;;;;;;;;20.47;64.99;100188.41;4972612;28;19922;-55
2023/03/26 05:10:33;;;;;;;;;;;;;;;20.77;64.12;100183.97;4971137;28;19914;-51
2023/03/26 05:13:03;;;;;;;;;;;;;;;20.72;64.82;100183.97;4970759;28;19964;-52
2023/03/26 05:15:33;;;;;;;;;;;;;;;21.17;63.36;100185.91;4971067;28;19982;-54
2023/03/26 05:18:07;;;;;;;;;;;;;;;20.80;63.72;100174.44;4969646;28;19915;-54
2023/03/26 05:20:45;;;;;;;;;;;;;;;20.50;65.02;100184.34;4968031;28;19921;-55
2023/03/26 05:23:11;;;;;;;;;;;;;;;20.88;64.27;100181.19;4971869;28;19926;-52
2023/03/26 05:25:40;;;;;;;;;;;;;;;20.47;64.86;100171.34;4967740;28;19936;-54
2023/03/26 05:28:13;;;;;;;;;;;;;;;20.16;65.89;100166.81;4967552;28;19915;-52
2023/03/26 05:30:58;;;;;;;;;;;;;;;20.28;65.81;100162.97;4969779;28;19922;-54
2023/03/26 05:33:26;;;;;;;;;;;;;;;20.47;65.41;100161.25;4967029;28;19915;-51
2023/03/26 05:36:00;;;;;;;;;;;;;;;20.31;65.84;100157.00;4964374;28;19929;-56
2023/03/26 05:38:27;;;;;;;;;;;;;;;20.48;65.37;100148.50;4967595;28;19926;-53
2023/03/26 05:40:58;;;;;;;;;;;;;;;20.25;66.39;100148.06;4966597;28;19922;-50
2023/03/26 05:43:24;;;;;;;;;;;;;;;20.29;66.10;100141.00;4967977;28;20009;-53
2023/03/26 05:46:06;;;;;;;;;;;;;;;20.31;66.68;100143.44;4970397;28;19946;-52
2023/03/26 05:48:32;;;;;;;;;;;;;;;20.47;66.18;100139.53;4970109;28;19915;-51
2023/03/26 05:50:58;;;;;;;;;;;;;;;20.30;66.54;100133.66;4967901;28;19918;-52
2023/03/26 05:53:27;;;;;;;;;;;;;;;20.29;66.52;100140.16;4968289;28;19930;-55
2023/03/26 05:56:25;;;;;;;;;;;;;;;20.74;65.68;100140.22;4983466;28;19937;-53
2023/03/26 05:59:13;;;;;;;;;;;;;;;20.43;66.76;100135.75;4963965;28;19922;-51
2023/03/26 06:01:58;;;;;;;;;;;;;;;20.33;66.78;100124.97;4972168;28;19961;-52
2023/03/26 06:04:44;;;;;;;;;;;;;;;20.41;66.71;100124.38;4974336;28;19933;-57
2023/03/26 06:07:32;;;;;;;;;;;;;;;20.28;66.88;100116.81;4971554;28;19921;-55
2023/03/26 06:10:16;;;;;;;;;;;;;;;20.28;66.91;100111.38;4965608;28;19960;-52
2023/03/26 06:12:42;;;;;;;;;;;;;;;20.22;67.03;100107.06;4972518;28;19914;-50
2023/03/26 06:15:08;;;;;;;;;;;;;;;20.35;67.00;100104.56;4971984;28;19999;-54
2023/03/26 06:17:44;;;;;;;;;;;;;;;20.09;67.73;100103.88;4968403;28;20439;-53
2023/03/26 06:20:34;;;;;;;;;;;;;;;20.11;67.99;100100.88;4970410;28;19945;-54
2023/03/26 06:23:05;;;;;;;;;;;;;;;20.00;67.86;100091.97;4970538;28;19914;-55
2023/03/26 06:25:50;;;;;;;;;;;;;;;19.91;68.55;100095.25;4972327;28;19914;-54
2023/03/26 06:28:35;;;;;;;;;;;;;;;19.36;70.15;100086.94;4973212;28;19967;-56
2023/03/26 06:31:10;;;;;;;;;;;;;;;19.67;69.99;100091.50;4973872;28;19915;-50
2023/03/26 06:33:48;;;;;;;;;;;;;;;20.10;68.58;100088.41;4969002;28;19973;-52
2023/03/26 06:36:14;;;;;;;;;;;;;;;19.78;69.67;100093.09;4970984;28;19925;-56
2023/03/26 06:38:40;;;;;;;;;;;;;;;19.67;70.31;100088.78;4984494;28;19918;-54
2023/03/26 06:41:06;;;;;;;;;;;;;;;19.84;69.95;100089.28;5002636;28;19944;-52
2023/03/26 06:43:51;;;;;;;;;;;;;;;19.85;70.03;100087.38;4997796;28;19921;-52
2023/03/26 06:46:35;;;;;;;;;;;;;;;19.91;69.75;100089.00;4993043;28;19987;-52
2023/03/26 06:49:19;;;;;;;;;;;;;;;20.23;68.61;100092.41;4988981;28;19929;-53
2023/03/26 06:52:15;;;;;;;;;;;;;;;20.26;68.28;100091.84;4994739;28;20300;-55
2023/03/26 06:55:00;;;;;;;;;;;;;;;20.86;67.29;100096.44;4986589;28;19919;-54
2023/03/26 06:57:48;;;;;;;;;;;;;;;20.28;68.12;100090.50;5006312;28;19946;-55
2023/03/26 07:00:47;;;;;;;;;;;;;;;20.27;68.37;100091.59;4956051;28;19972;-55
2023/03/26 07:03:42;;;;;;;;;;;;;;;20.45;67.46;100095.56;4987676;28;19918;-52
2023/03/26 07:06:26;;;;;;;;;;;;;;;20.49;66.87;100093.91;4991815;28;19963;-52
2023/03/26 07:09:11;;;;;;;;;;;;;;;20.35;68.05;100079.34;4990368;28;19933;-55
2023/03/26 07:11:56;;;;;;;;;;;;;;;20.76;66.54;100081.81;4986966;28;19924;-52
2023/03/26 07:14:26;;;;;;;;;;;;;;;20.07;68.50;100084.34;4989606;28;19914;-53
2023/03/26 07:17:08;;;;;;;;;;;;;;;20.36;68.13;100083.69;4992024;28;19932;-54
2023/03/26 07:19:53;;;;;;;;;;;;;;;20.28;68.63;100086.94;4988521;28;19946;-55
2023/03/26 07:22:23;;;;;;;;;;;;;;;21.00;66.14;100080.28;5000471;28;19918;-51
2023/03/26 07:25:12;;;;;;;;;;;;;;;20.71;66.70;100083.75;5010463;28;19918;-54
2023/03/26 07:28:03;;;;;;;;;;;;;;;20.43;67.77;100080.66;4975478;28;19926;-55
2023/03/26 07:30:57;;;;;;;;;;;;;;;20.39;67.88;100077.69;4989641;28;19937;-55
2023/03/26 07:33:45;;;;;;;;;;;;;;;20.11;70.26;100076.44;4990408;28;19959;-57
2023/03/26 07:36:25;;;;;;;;;;;;;;;19.84;71.50;100070.31;4982216;28;19924;-55
2023/03/26 07:39:18;;;;;;;;;;;;;;;19.99;70.93;100071.34;4990781;28;20281;-52
2023/03/26 07:42:32;;;;;;;;;;;;;;;20.30;70.07;100073.94;4992232;28;19936;-54
2023/03/26 07:45:19;;;;;;;;;;;;;;;19.26;73.09;100071.50;4987641;28;19936;-56
2023/03/26 07:48:03;;;;;;;;;;;;;;;18.84;78.98;100067.94;4968247;28;20001;-52
2023/03/26 07:50:54;;;;;;;;;;;;;;;18.84;80.64;100061.72;5003054;28;19918;-57
2023/03/26 07:53:40;;;;;;;;;;;;;;;17.75;86.36;100059.47;4987986;28;19914;-54
2023/03/26 07:56:29;;;;;;;;;;;;;;;18.72;85.96;100060.09;4992250;28;19918;-53
2023/03/26 07:59:13;;;;;;;;;;;;;;;18.28;88.37;100060.53;4987532;28;19970;-51
2023/03/26 08:02:15;;;;;;;;;;;;;;;17.83;92.38;100058.16;4988162;28;19918;-52
2023/03/26 08:05:09;;;;;;;;;;;;;;;17.93;96.18;100052.00;5006771;28;19925;-54
2023/03/26 08:08:04;;;;;;;;;;;;;;;18.66;89.55;100050.31;4990893;28;19980;-54
2023/03/26 08:10:38;;;;;;;;;;;;;;;18.99;87.89;100048.22;4987746;28;19914;-52
2023/03/26 08:13:14;;;;;;;;;;;;;;;18.93;88.43;100051.97;4989475;28;19920;-50
2023/03/26 08:16:04;;;;;;;;;;;;;;;18.87;88.68;100050.31;4986082;28;19914;-55
2023/03/26 08:18:31;;;;;;;;;;;;;;;19.04;88.14;100044.69;4986473;28;19914;-53
2023/03/26 08:20:59;;;;;;;;;;;;;;;19.05;87.60;100047.13;4986061;28;20506;-55
2023/03/26 08:23:33;;;;;;;;;;;;;;;18.61;89.39;100044.88;4987289;28;19914;-50
2023/03/26 08:26:21;;;;;;;;;;;;;;;19.23;87.30;100053.06;4986180;28;20457;-52
2023/03/26 08:28:57;;;;;;;;;;;;;;;18.99;89.08;100045.50;4985023;28;19923;-55
2023/03/26 08:31:31;;;;;;;;;;;;;;;19.16;88.00;100049.84;4986488;28;19914;-53
2023/03/26 08:33:57;;;;;;;;;;;;;;;19.33;87.68;100046.81;4989100;28;19922;-54
2023/03/26 08:36:22;;;;;;;;;;;;;;;19.54;86.98;100052.22;4987715;28;19981;-52
2023/03/26 08:38:49;;;;;;;;;;;;;;;19.48;86.26;100051.41;4988647;28;19918;-52
2023/03/26 08:41:18;;;;;;;;;;;;;;;19.66;85.74;100043.78;4987828;28;19918;-54
2023/03/26 08:44:06;;;;;;;;;;;;;;;19.71;85.57;100043.75;4990810;28;19929;-54
2023/03/26 08:46:51;;;;;;;;;;;;;;;19.76;84.66;100054.56;4987711;28;19981;-55
2023/03/26 08:49:35;;;;;;;;;;;;;;;19.58;84.78;100048.66;4984143;28;19925;-54
2023/03/26 08:52:23;;;;;;;;;;;;;;;19.98;84.13;100048.84;4987118;28;19960;-55
2023/03/26 08:55:07;;;;;;;;;;;;;;;18.30;94.73;100047.53;4987212;28;19918;-55
2023/03/26 08:57:44;;;;;;;;;;;;;;;18.17;98.21;100044.25;4987573;28;19948;-52
2023/03/26 09:00:31;;;;;;;;;;;;;;;18.09;100.00;100044.78;4990289;28;19981;-54
2023/03/26 09:03:05;;;;;;;;;;;;;;;20.59;82.22;100046.84;4984440;28;19973;-56
2023/03/26 09:05:33;;;;;;;;;;;;;;;21.31;77.28;100041.94;4985760;28;19984;-53
2023/03/26 09:08:02;;;;;;;;;;;;;;;20.99;76.46;100040.63;4989656;28;19921;-51
2023/03/26 09:10:27;;;;;;;;;;;;;;;20.46;79.10;100050.22;4994130;28;19914;-53
2023/03/26 09:13:12;;;;;;;;;;;;;;;20.56;79.68;100041.19;4986107;28;19922;-50
2023/03/26 09:15:56;;;;;;;;;;;;;;;20.52;79.23;100034.69;4986032;28;19981;-55
2023/03/26 09:18:21;;;;;;;;;;;;;;;20.83;78.08;100039.94;4987346;28;19928;-51
2023/03/26 09:20:59;;;;;;;;;;;;;;;20.92;77.36;100036.31;4983016;28;19946;-56
2023/03/26 09:23:43;;;;;;;;;;;;;;;20.79;77.08;100039.66;4984679;28;19954;-52
2023/03/26 09:26:16;;;;;;;;;;;;;;;21.03;74.46;100037.06;4981989;28;19922;-54
2023/03/26 09:28:54;;;;;;;;;;;;;;;21.29;71.54;100038.69;4985731;28;19918;-54
2023/03/26 09:31:39;;;;;;;;;;;;;;;21.79;70.10;100043.91;4982579;28;19920;-55
2023/03/26 09:34:07;;;;;;;;;;;;;;;20.80;73.42;100037.78;4985616;28;19914;-53
2023/03/26 09:36:52;;;;;;;;;;;;;;;21.04;71.75;100037.84;4986302;28;19914;-53
2023/03/26 09:39:36;;;;;;;;;;;;;;;21.43;71.22;100044.28;4987240;28;19918;-54
2023/03/26 09:42:07;;;;;;;;;;;;;;;21.40;70.83;100036.69;4991174;28;19921;-56
2023/03/26 09:44:51;;;;;;;;;;;;;;;21.51;69.13;100046.38;4986885;28;19914;-56
2023/03/26 09:47:33;;;;;;;;;;;;;;;20.58;71.25;100047.16;4988696;28;19926;-56
2023/03/26 09:50:17;;;;;;;;;;;;;;;21.39;68.38;100043.22;4990113;28;19945;-53
2023/03/26 09:52:43;;;;;;;;;;;;;;;21.41;68.67;100046.47;4987748;28;19970;-50
2023/03/26 09:55:28;;;;;;;;;;;;;;;20.85;70.21;100048.63;4989456;28;19913;-53
2023/03/26 09:57:59;;;;;;;;;;;;;;;21.08;67.46;100059.84;4962069;28;19914;-53
2023/03/26 10:00:31;;;;;;;;;;;;;;;21.58;68.02;100048.75;4990511;28;19977;-53
2023/03/26 10:03:08;;;;;;;;;;;;;;;21.76;66.58;100052.66;4977938;28;19918;-55
2023/03/26 10:05:45;;;;;;;;;;;;;;;21.80;66.92;100050.16;4982751;28;19914;-54
2023/03/26 10:08:19;;;;;;;;;;;;;;;22.09;66.32;100055.50;4984941;28;19950;-55
2023/03/26 10:11:01;;;;;;;;;;;;;;;21.82;65.92;100059.66;4986132;28;19922;-57
2023/03/26 10:13:29;;;;;;;;;;;;;;;22.13;64.81;100056.53;4990318;28;19985;-56
2023/03/26 10:15:56;;;;;;;;;;;;;;;22.29;65.61;100059.06;4999634;28;19956;-53
2023/03/26 10:18:38;;;;;;;;;;;;;;;22.66;63.38;100060.22;4984996;28;19914;-55
2023/03/26 10:21:04;;;;;;;;;;;;;;;22.31;63.83;100062.31;5002705;28;19926;-53
2023/03/26 10:23:45;;;;;;;;;;;;;;;22.39;64.11;100069.00;4987031;28;19996;-53
2023/03/26 10:26:26;;;;;;;;;;;;;;;22.33;64.92;100063.66;4996875;28;19921;-54
2023/03/26 10:29:11;;;;;;;;;;;;;;;22.82;63.37;100063.50;4984116;28;19937;-55
2023/03/26 10:31:40;;;;;;;;;;;;;;;22.24;66.85;100073.56;4992329;28;21712;-56
2023/03/26 10:34:25;;;;;;;;;;;;;;;22.35;65.64;100068.78;4973947;28;19922;-54
2023/03/26 10:36:50;;;;;;;;;;;;;;;22.08;66.33;100072.94;4985671;28;19914;-54
2023/03/26 10:39:28;;;;;;;;;;;;;;;22.49;64.51;100075.16;4984823;28;19929;-53
2023/03/26 10:42:03;;;;;;;;;;;;;;;22.34;65.34;100073.44;4988026;28;19918;-54
2023/03/26 10:44:47;;;;;;;;;;;;;;;22.39;64.86;100075.28;4988881;28;19921;-54
2023/03/26 10:47:25;;;;;;;;;;;;;;;22.13;67.21;100074.81;4990082;28;19918;-55
2023/03/26 10:49:51;;;;;;;;;;;;;;;22.10;66.67;100070.75;4987991;28;19974;-56
2023/03/26 10:52:43;;;;;;;;;;;;;;;22.03;68.18;100075.75;4983713;28;19921;-56
2023/03/26 10:55:10;;;;;;;;;;;;;;;22.31;68.51;100078.66;4987089;28;19923;-56
2023/03/26 10:57:38;;;;;;;;;;;;;;;22.51;67.01;100077.59;4988250;28;19982;-55
2023/03/26 11:00:12;;;;;;;;;;;;;;;22.84;66.67;100085.81;4989699;28;20005;-55
2023/03/26 11:02:43;;;;;;;;;;;;;;;23.49;65.12;100089.66;4986313;28;19913;-52
2023/03/26 11:05:26;;;;;;;;;;;;;;;23.55;64.66;100076.75;4993418;28;19921;-52
2023/03/26 11:08:00;;;;;;;;;;;;;;;23.50;64.30;100079.53;4994303;28;19942;-54
2023/03/26 11:10:52;;;;;;;;;;;;;;;23.67;65.62;100092.63;4985910;28;19914;-54
2023/03/26 11:13:33;;;;;;;;;;;;;;;23.73;66.21;100083.22;4987628;28;19981;-55
2023/03/26 11:16:01;;;;;;;;;;;;;;;23.69;64.21;100092.31;4987305;28;19918;-56
2023/03/26 11:18:53;;;;;;;;;;;;;;;24.49;63.16;100103.81;4985750;28;19925;-56
2023/03/26 11:21:36;;;;;;;;;;;;;;;24.45;60.42;100105.53;4975695;28;19973;-56
2023/03/26 11:24:32;;;;;;;;;;;;;;;23.59;62.88;100099.59;4999781;28;19918;-57
2023/03/26 11:27:02;;;;;;;;;;;;;;;23.27;64.83;100097.69;4992359;28;19921;-56
2023/03/26 11:29:39;;;;;;;;;;;;;;;22.70;67.25;100102.09;4986071;28;19918;-52
2023/03/26 11:32:10;;;;;;;;;;;;;;;22.77;66.13;100097.09;4992296;28;19917;-56
2023/03/26 11:34:52;;;;;;;;;;;;;;;22.63;66.50;100107.94;4990428;28;19917;-55
2023/03/26 11:37:24;;;;;;;;;;;;;;;22.58;67.48;100105.28;4990030;28;19913;-56
2023/03/26 11:39:51;;;;;;;;;;;;;;;22.10;68.69;100111.59;4986656;28;19922;-54
2023/03/26 11:42:20;;;;;;;;;;;;;;;22.44;68.43;100102.44;4987753;28;19977;-53
2023/03/26 11:44:54;;;;;;;;;;;;;;;22.20;69.71;100106.03;4987567;28;19917;-57
2023/03/26 11:47:22;;;;;;;;;;;;;;;22.29;69.61;100105.38;4988107;28;19914;-56
2023/03/26 11:49:50;;;;;;;;;;;;;;;22.13;70.20;100102.81;4983849;28;19914;-54
2023/03/26 11:52:15;;;;;;;;;;;;;;;21.60;71.42;100096.31;4983369;28;19925;-57
2023/03/26 11:54:42;;;;;;;;;;;;;;;22.08;70.94;100107.56;4985301;28;20364;-56
2023/03/26 11:57:11;;;;;;;;;;;;;;;22.34;69.44;100106.13;4988407;28;19914;-55
2023/03/26 11:59:36;;;;;;;;;;;;;;;22.72;68.20;100118.16;4982123;28;20055;-57
2023/03/26 12:02:02;;;;;;;;;;;;;;;22.56;68.54;100117.56;4982786;28;19915;-56
2023/03/26 12:04:34;;;;;;;;;;;;;;;22.69;69.73;100122.28;4985710;28;19981;-54
2023/03/26 12:07:07;;;;;;;;;;;;;;;23.29;67.53;100120.03;4988385;28;19913;-55
2023/03/26 12:09:33;;;;;;;;;;;;;;;23.30;67.65;100119.75;4982140;28;19933;-55
2023/03/26 12:12:01;;;;;;;;;;;;;;;22.82;67.84;100119.91;4988395;28;19918;-53
2023/03/26 12:14:28;;;;;;;;;;;;;;;23.11;68.17;100127.13;4982759;28;19914;-50
2023/03/26 12:16:59;;;;;;;;;;;;;;;23.37;66.66;100126.72;4988386;28;19914;-55
2023/03/26 12:19:27;;;;;;;;;;;;;;;23.08;65.77;100131.25;4984571;28;19914;-56
2023/03/26 12:21:53;;;;;;;;;;;;;;;25.77;58.67;100138.47;4980901;28;19976;-56
2023/03/26 12:24:29;;;;;;;;;;;;;;;24.96;60.36;100142.97;4984073;28;19913;-51
2023/03/26 12:27:02;;;;;;;;;;;;;;;23.75;61.16;100135.59;4985630;28;19920;-50
2023/03/26 12:29:33;;;;;;;;;;;;;;;24.45;59.26;100149.25;4982028;28;19991;-53
2023/03/26 12:32:13;;;;;;;;;;;;;;;24.61;58.32;100152.47;4979629;28;20068;-55
2023/03/26 12:34:39;;;;;;;;;;;;;;;24.70;59.32;100158.00;4981469;28;19911;-53
2023/03/26 12:37:06;;;;;;;;;;;;;;;24.28;58.25;100157.28;5001763;28;19926;-53
2023/03/26 12:39:35;;;;;;;;;;;;;;;24.01;59.73;100158.88;4981794;28;19940;-52
2023/03/26 12:42:01;;;;;;;;;;;;;;;24.02;59.99;100165.97;4989517;28;19918;-56
2023/03/26 12:44:28;;;;;;;;;;;;;;;24.26;58.81;100170.44;4981466;28;19914;-54
2023/03/26 12:47:07;;;;;;;;;;;;;;;23.91;60.21;100159.88;4983335;28;19937;-52
2023/03/26 12:49:33;;;;;;;;;;;;;;;23.24;60.34;100169.97;4986598;28;19914;-54
2023/03/26 12:52:13;;;;;;;;;;;;;;;22.96;61.37;100169.06;4985249;28;19943;-53
2023/03/26 12:54:52;;;;;;;;;;;;;;;22.93;61.35;100175.91;4979380;28;19914;-51
2023/03/26 12:57:23;;;;;;;;;;;;;;;23.17;59.99;100177.75;4986009;28;19954;-57
2023/03/26 13:00:09;;;;;;;;;;;;;;;23.84;58.86;100182.09;4987094;28;19918;-52
2023/03/26 13:02:36;;;;;;;;;;;;;;;23.33;59.33;100179.16;4985503;28;19910;-55
2023/03/26 13:05:27;;;;;;;;;;;;;;;22.85;62.09;100182.84;4981245;28;19995;-53
2023/03/26 13:08:11;;;;;;;;;;;;;;;23.46;60.23;100187.66;4987212;28;19953;-53
2023/03/26 13:10:57;;;;;;;;;;;;;;;22.98;60.61;100192.19;4979507;28;19898;-54
2023/03/26 13:13:51;;;;;;;;;;;;;;;22.75;60.00;100183.78;4983438;28;19949;-49
2023/03/26 13:16:22;;;;;;;;;;;;;;;22.64;60.17;100187.78;4986714;28;19914;-54